createdAt,value
2022-11-02T00:00:42.922Z,821.96
2022-11-02T00:01:42.999Z,821.95
2022-11-02T00:02:43.023Z,821.94
2022-11-02T00:03:42.954Z,821.93
2022-11-02T00:04:42.964Z,821.93
2022-11-02T00:05:42.973Z,821.95
2022-11-02T00:06:42.986Z,821.93
2022-11-02T00:07:42.992Z,821.90
2022-11-02T00:08:43.004Z,821.90
2022-11-02T00:09:43.020Z,821.93
2022-11-02T00:10:43.028Z,821.92
2022-11-02T00:11:43.053Z,821.89
2022-11-02T00:12:43.050Z,821.94
2022-11-02T00:13:43.058Z,821.92
2022-11-02T00:14:43.070Z,821.91
2022-11-02T00:15:43.078Z,821.93
2022-11-02T00:16:43.091Z,821.87
2022-11-02T00:17:43.098Z,821.88
2022-11-02T00:18:43.116Z,821.89
2022-11-02T00:19:43.118Z,821.83
2022-11-02T00:20:43.168Z,821.86
2022-11-02T00:21:43.146Z,821.83
2022-11-02T00:22:43.151Z,821.85
2022-11-02T00:23:43.171Z,821.85
2022-11-02T00:24:43.177Z,821.87
2022-11-02T00:25:43.183Z,821.85
2022-11-02T00:26:43.196Z,821.84
2022-11-02T00:27:43.222Z,821.86
2022-11-02T00:28:43.214Z,821.85
2022-11-02T00:29:43.225Z,821.85
2022-11-02T00:30:43.243Z,821.86
2022-11-02T00:31:43.245Z,821.85
2022-11-02T00:32:43.257Z,821.87
2022-11-02T00:33:43.268Z,821.86
2022-11-02T00:34:43.280Z,821.84
2022-11-02T00:35:43.287Z,821.84
2022-11-02T00:36:43.298Z,821.84
2022-11-02T00:37:43.306Z,821.84
2022-11-02T00:38:43.323Z,821.86
2022-11-02T00:39:43.328Z,821.86
2022-11-02T00:40:43.340Z,821.86
2022-11-02T00:41:43.352Z,821.84
2022-11-02T00:42:43.360Z,821.87
2022-11-02T00:43:43.391Z,821.88
2022-11-02T00:44:43.384Z,821.87
2022-11-02T00:45:43.389Z,821.85
2022-11-02T00:46:43.419Z,821.85
2022-11-02T00:47:43.409Z,821.81
2022-11-02T00:48:43.424Z,821.84
2022-11-02T00:49:43.430Z,821.85
2022-11-02T00:50:43.452Z,821.83
2022-11-02T00:51:43.452Z,821.84
2022-11-02T00:52:43.461Z,821.89
2022-11-02T00:53:43.472Z,821.89
2022-11-02T00:54:43.482Z,821.90
2022-11-02T00:55:43.493Z,821.90
2022-11-02T00:56:43.511Z,821.91
2022-11-02T00:57:43.511Z,821.97
2022-11-02T00:58:43.532Z,821.92
2022-11-02T00:59:43.558Z,821.97
2022-11-02T01:00:43.548Z,821.98
2022-11-02T01:01:43.638Z,821.98
2022-11-02T01:02:43.756Z,821.99
2022-11-02T01:03:43.578Z,821.99
2022-11-02T01:04:43.585Z,821.99
2022-11-02T01:05:43.594Z,822.00
2022-11-02T01:06:43.612Z,822.01
2022-11-02T01:07:43.619Z,821.99
2022-11-02T01:08:43.630Z,821.94
2022-11-02T01:09:43.637Z,821.96
2022-11-02T01:10:47.228Z,821.92
2022-11-02T01:11:43.656Z,821.95
2022-11-02T01:12:43.668Z,821.94
2022-11-02T01:13:43.677Z,821.95
2022-11-02T01:14:43.689Z,821.89
2022-11-02T01:15:43.716Z,821.94
2022-11-02T01:16:43.718Z,821.90
2022-11-02T01:17:43.717Z,821.92
2022-11-02T01:18:43.745Z,821.96
2022-11-02T01:19:43.739Z,821.94
2022-11-02T01:20:43.759Z,821.97
2022-11-02T01:21:43.761Z,822.01
2022-11-02T01:22:43.768Z,821.97
2022-11-02T01:23:43.801Z,821.99
2022-11-02T01:24:43.789Z,822.01
2022-11-02T01:25:43.820Z,822.04
2022-11-02T01:26:43.810Z,822.04
2022-11-02T01:27:43.827Z,821.98
2022-11-02T01:28:43.828Z,822.00
2022-11-02T01:29:43.866Z,822.04
2022-11-02T01:30:43.849Z,822.03
2022-11-02T01:31:43.874Z,822.00
2022-11-02T01:32:43.873Z,822.00
2022-11-02T01:33:43.877Z,821.98
2022-11-02T01:34:43.886Z,821.96
2022-11-02T01:35:43.905Z,822.00
2022-11-02T01:36:43.977Z,821.97
2022-11-02T01:37:43.919Z,821.96
2022-11-02T01:38:43.930Z,821.96
2022-11-02T01:39:43.939Z,821.95
2022-11-02T01:40:43.945Z,821.97
2022-11-02T01:41:43.958Z,821.95
2022-11-02T01:42:43.971Z,821.95
2022-11-02T01:43:43.978Z,821.96
2022-11-02T01:44:43.985Z,821.91
2022-11-02T01:45:43.993Z,821.89
2022-11-02T01:46:44.006Z,821.91
2022-11-02T01:47:44.030Z,821.90
2022-11-02T01:48:44.027Z,821.88
2022-11-02T01:49:44.033Z,821.89
2022-11-02T01:50:44.043Z,821.87
2022-11-02T01:51:44.051Z,821.88
2022-11-02T01:52:44.063Z,821.87
2022-11-02T01:53:44.074Z,821.85
2022-11-02T01:54:44.085Z,821.86
2022-11-02T01:55:44.088Z,821.86
2022-11-02T01:56:44.100Z,821.88
2022-11-02T01:57:44.109Z,821.86
2022-11-02T01:58:44.121Z,821.80
2022-11-02T01:59:44.135Z,821.81
2022-11-02T02:00:44.175Z,821.80
2022-11-02T02:01:44.263Z,821.79
2022-11-02T02:02:44.247Z,821.75
2022-11-02T02:03:44.185Z,821.71
2022-11-02T02:04:44.179Z,821.71
2022-11-02T02:05:44.193Z,821.66
2022-11-02T02:06:44.201Z,821.63
2022-11-02T02:07:44.207Z,821.69
2022-11-02T02:08:44.220Z,821.68
2022-11-02T02:09:48.637Z,821.68
2022-11-02T02:10:44.237Z,821.70
2022-11-02T02:11:44.250Z,821.67
2022-11-02T02:12:44.257Z,821.68
2022-11-02T02:13:44.264Z,821.69
2022-11-02T02:14:44.279Z,821.68
2022-11-02T02:15:44.284Z,821.66
2022-11-02T02:16:44.347Z,821.65
2022-11-02T02:17:44.305Z,821.67
2022-11-02T02:18:44.384Z,821.70
2022-11-02T02:19:44.352Z,821.65
2022-11-02T02:20:44.335Z,821.67
2022-11-02T02:21:44.344Z,821.68
2022-11-02T02:22:44.355Z,821.67
2022-11-02T02:23:44.367Z,821.69
2022-11-02T02:24:44.374Z,821.71
2022-11-02T02:25:44.382Z,821.66
2022-11-02T02:26:44.392Z,821.68
2022-11-02T02:27:44.402Z,821.68
2022-11-02T02:28:44.419Z,821.63
2022-11-02T02:29:44.422Z,821.65
2022-11-02T02:30:44.434Z,821.65
2022-11-02T02:31:44.439Z,821.66
2022-11-02T02:32:44.549Z,821.69
2022-11-02T02:33:44.464Z,821.69
2022-11-02T02:34:44.472Z,821.66
2022-11-02T02:35:44.498Z,821.68
2022-11-02T02:37:44.500Z,821.68
2022-11-02T02:38:44.517Z,821.69
2022-11-02T02:39:44.520Z,821.65
2022-11-02T02:40:44.533Z,821.71
2022-11-02T02:41:44.544Z,821.70
2022-11-02T02:42:44.555Z,821.69
2022-11-02T02:43:44.559Z,821.69
2022-11-02T02:44:44.569Z,821.70
2022-11-02T02:45:44.581Z,821.68
2022-11-02T02:46:46.363Z,821.69
2022-11-02T02:47:44.598Z,821.68
2022-11-02T02:48:44.614Z,821.66
2022-11-02T02:49:44.621Z,821.65
2022-11-02T02:50:44.629Z,821.67
2022-11-02T02:51:44.658Z,821.65
2022-11-02T02:52:44.651Z,821.68
2022-11-02T02:53:44.662Z,821.69
2022-11-02T02:54:44.670Z,821.71
2022-11-02T02:55:44.681Z,821.74
2022-11-02T02:56:44.690Z,821.72
2022-11-02T02:57:44.699Z,821.72
2022-11-02T02:58:44.711Z,821.71
2022-11-02T02:59:44.716Z,821.72
2022-11-02T03:00:44.730Z,821.74
2022-11-02T03:01:44.866Z,821.74
2022-11-02T03:02:44.825Z,821.75
2022-11-02T03:03:44.756Z,821.74
2022-11-02T03:04:44.769Z,821.75
2022-11-02T03:05:44.777Z,821.74
2022-11-02T03:06:44.789Z,821.73
2022-11-02T03:07:44.815Z,821.71
2022-11-02T03:08:44.808Z,821.74
2022-11-02T03:09:44.816Z,821.75
2022-11-02T03:10:44.829Z,821.74
2022-11-02T03:11:44.837Z,821.73
2022-11-02T03:12:44.848Z,821.76
2022-11-02T03:13:44.855Z,821.77
2022-11-02T03:14:44.968Z,821.79
2022-11-02T03:15:44.873Z,821.81
2022-11-02T03:16:44.886Z,821.79
2022-11-02T03:17:44.895Z,821.82
2022-11-02T03:18:44.925Z,821.80
2022-11-02T03:19:44.919Z,821.85
2022-11-02T03:20:44.929Z,821.83
2022-11-02T03:21:44.933Z,821.88
2022-11-02T03:22:44.945Z,821.84
2022-11-02T03:23:45.022Z,821.85
2022-11-02T03:24:44.965Z,821.83
2022-11-02T03:25:44.974Z,821.85
2022-11-02T03:26:44.984Z,821.90
2022-11-02T03:27:44.993Z,821.89
2022-11-02T03:28:45.010Z,821.88
2022-11-02T03:29:45.012Z,821.86
2022-11-02T03:30:45.040Z,821.91
2022-11-02T03:31:45.030Z,821.87
2022-11-02T03:32:45.043Z,821.90
2022-11-02T03:33:45.052Z,821.91
2022-11-02T03:34:45.066Z,821.89
2022-11-02T03:35:45.072Z,821.88
2022-11-02T03:36:45.087Z,821.90
2022-11-02T03:37:45.091Z,821.90
2022-11-02T03:38:45.110Z,821.95
2022-11-02T03:39:45.128Z,821.93
2022-11-02T03:40:45.126Z,821.91
2022-11-02T03:41:45.131Z,821.95
2022-11-02T03:42:45.250Z,821.95
2022-11-02T03:43:45.147Z,821.95
2022-11-02T03:44:45.161Z,821.95
2022-11-02T03:45:45.167Z,821.92
2022-11-02T03:46:45.180Z,821.95
2022-11-02T03:47:45.191Z,821.96
2022-11-02T03:48:45.202Z,821.95
2022-11-02T03:49:45.218Z,821.94
2022-11-02T03:50:45.232Z,821.96
2022-11-02T03:51:45.229Z,821.95
2022-11-02T03:52:45.241Z,821.92
2022-11-02T03:53:45.251Z,821.93
2022-11-02T03:54:45.271Z,821.92
2022-11-02T03:55:45.308Z,821.95
2022-11-02T03:56:45.275Z,821.94
2022-11-02T03:57:45.289Z,821.97
2022-11-02T03:58:45.293Z,821.95
2022-11-02T03:59:45.306Z,821.89
2022-11-02T04:00:45.311Z,821.89
2022-11-02T04:01:45.477Z,821.89
2022-11-02T04:02:45.439Z,821.89
2022-11-02T04:03:45.343Z,821.90
2022-11-02T04:04:45.350Z,821.90
2022-11-02T04:05:45.363Z,821.90
2022-11-02T04:06:45.370Z,821.93
2022-11-02T04:07:49.379Z,821.91
2022-11-02T04:08:45.390Z,821.92
2022-11-02T04:09:45.401Z,821.94
2022-11-02T04:10:45.410Z,821.96
2022-11-02T04:11:45.441Z,821.96
2022-11-02T04:12:45.428Z,821.95
2022-11-02T04:13:45.444Z,821.97
2022-11-02T04:14:45.448Z,821.95
2022-11-02T04:15:45.460Z,821.95
2022-11-02T04:16:45.470Z,821.94
2022-11-02T04:17:45.484Z,821.98
2022-11-02T04:18:45.486Z,821.97
2022-11-02T04:19:48.745Z,822.00
2022-11-02T04:20:45.506Z,822.00
2022-11-02T04:21:45.567Z,822.00
2022-11-02T04:22:45.531Z,821.97
2022-11-02T04:23:45.539Z,822.03
2022-11-02T04:24:45.544Z,821.97
2022-11-02T04:25:45.572Z,822.01
2022-11-02T04:26:45.565Z,821.99
2022-11-02T04:27:45.596Z,822.01
2022-11-02T04:28:45.583Z,821.96
2022-11-02T04:29:45.593Z,822.00
2022-11-02T04:30:45.602Z,821.97
2022-11-02T04:31:45.616Z,821.96
2022-11-02T04:32:45.633Z,821.96
2022-11-02T04:33:45.632Z,821.98
2022-11-02T04:34:45.644Z,821.95
2022-11-02T04:35:45.653Z,821.92
2022-11-02T04:36:45.668Z,821.93
2022-11-02T04:37:45.681Z,821.89
2022-11-02T04:38:45.683Z,821.91
2022-11-02T04:39:45.695Z,821.91
2022-11-02T04:40:45.701Z,821.90
2022-11-02T04:41:45.718Z,821.87
2022-11-02T04:42:45.722Z,821.87
2022-11-02T04:43:45.755Z,821.85
2022-11-02T04:44:45.743Z,821.89
2022-11-02T04:45:45.753Z,821.87
2022-11-02T04:46:45.760Z,821.90
2022-11-02T04:47:45.771Z,821.88
2022-11-02T04:48:45.780Z,821.89
2022-11-02T04:49:45.792Z,821.87
2022-11-02T04:50:45.919Z,821.87
2022-11-02T04:51:49.741Z,821.88
2022-11-02T04:52:45.824Z,821.89
2022-11-02T04:53:45.829Z,821.90
2022-11-02T04:54:45.841Z,821.88
2022-11-02T04:55:45.849Z,821.88
2022-11-02T04:56:45.857Z,821.85
2022-11-02T04:57:45.884Z,821.89
2022-11-02T04:58:45.878Z,821.88
2022-11-02T04:59:45.909Z,821.88
2022-11-02T05:00:45.899Z,821.87
2022-11-02T05:01:46.103Z,821.89
2022-11-02T05:02:45.996Z,821.86
2022-11-02T05:03:45.929Z,821.82
2022-11-02T05:04:45.937Z,821.85
2022-11-02T05:05:45.949Z,821.88
2022-11-02T05:06:45.960Z,821.82
2022-11-02T05:07:45.969Z,821.85
2022-11-02T05:08:45.976Z,821.85
2022-11-02T05:09:45.990Z,821.88
2022-11-02T05:10:45.998Z,821.86
2022-11-02T05:11:46.110Z,821.89
2022-11-02T05:12:46.016Z,821.88
2022-11-02T05:13:46.029Z,821.85
2022-11-02T05:14:46.036Z,821.86
2022-11-02T05:15:46.065Z,821.80
2022-11-02T05:16:46.080Z,821.82
2022-11-02T05:17:46.081Z,821.78
2022-11-02T05:18:46.091Z,821.78
2022-11-02T05:19:46.093Z,821.76
2022-11-02T05:20:46.095Z,821.78
2022-11-02T05:21:46.108Z,821.75
2022-11-02T05:22:46.116Z,821.79
2022-11-02T05:23:46.131Z,821.75
2022-11-02T05:24:46.135Z,821.77
2022-11-02T05:25:46.146Z,821.77
2022-11-02T05:26:49.872Z,821.80
2022-11-02T05:27:46.166Z,821.77
2022-11-02T05:28:46.176Z,821.80
2022-11-02T05:29:46.187Z,821.77
2022-11-02T05:30:46.196Z,821.78
2022-11-02T05:31:46.226Z,821.76
2022-11-02T05:32:46.216Z,821.76
2022-11-02T05:33:46.227Z,821.72
2022-11-02T05:34:46.237Z,821.78
2022-11-02T05:35:46.247Z,821.76
2022-11-02T05:36:46.259Z,821.76
2022-11-02T05:37:46.267Z,821.78
2022-11-02T05:38:46.274Z,821.74
2022-11-02T05:39:49.418Z,821.78
2022-11-02T05:40:46.295Z,821.78
2022-11-02T05:41:46.315Z,821.79
2022-11-02T05:42:46.319Z,821.79
2022-11-02T05:43:46.326Z,821.76
2022-11-02T05:44:46.343Z,821.76
2022-11-02T05:45:46.351Z,821.78
2022-11-02T05:46:46.353Z,821.80
2022-11-02T05:47:46.383Z,821.80
2022-11-02T05:48:46.374Z,821.81
2022-11-02T05:49:46.386Z,821.78
2022-11-02T05:50:46.405Z,821.82
2022-11-02T05:51:46.407Z,821.86
2022-11-02T05:52:46.413Z,821.90
2022-11-02T05:53:46.430Z,821.86
2022-11-02T05:54:46.434Z,821.90
2022-11-02T05:55:46.445Z,821.89
2022-11-02T05:56:46.453Z,821.95
2022-11-02T05:57:46.464Z,821.94
2022-11-02T05:58:46.522Z,821.91
2022-11-02T05:59:49.261Z,821.87
2022-11-02T06:00:46.492Z,821.93
2022-11-02T06:01:46.618Z,821.92
2022-11-02T06:02:46.511Z,821.96
2022-11-02T06:03:52.097Z,821.98
2022-11-02T06:04:46.534Z,821.99
2022-11-02T06:05:46.627Z,821.98
2022-11-02T06:06:46.559Z,822.01
2022-11-02T06:07:46.562Z,821.96
2022-11-02T06:08:46.572Z,821.95
2022-11-02T06:09:46.582Z,821.99
2022-11-02T06:10:46.593Z,821.99
2022-11-02T06:11:46.601Z,821.97
2022-11-02T06:12:46.610Z,821.97
2022-11-02T06:13:46.623Z,822.01
2022-11-02T06:14:46.636Z,822.02
2022-11-02T06:15:46.641Z,822.02
2022-11-02T06:16:46.653Z,822.02
2022-11-02T06:17:46.660Z,822.04
2022-11-02T06:18:46.671Z,822.06
2022-11-02T06:19:46.707Z,822.08
2022-11-02T06:20:46.695Z,822.07
2022-11-02T06:21:48.482Z,822.06
2022-11-02T06:22:46.713Z,822.04
2022-11-02T06:23:46.718Z,822.05
2022-11-02T06:24:46.732Z,822.08
2022-11-02T06:25:46.840Z,822.09
2022-11-02T06:26:46.771Z,822.09
2022-11-02T06:27:46.761Z,822.10
2022-11-02T06:28:46.775Z,822.13
2022-11-02T06:29:46.779Z,822.11
2022-11-02T06:30:46.788Z,822.05
2022-11-02T06:31:46.799Z,822.11
2022-11-02T06:32:46.809Z,822.15
2022-11-02T06:33:46.818Z,822.13
2022-11-02T06:34:46.827Z,822.16
2022-11-02T06:35:46.910Z,822.18
2022-11-02T06:36:46.850Z,822.20
2022-11-02T06:37:46.859Z,822.23
2022-11-02T06:38:46.868Z,822.22
2022-11-02T06:39:46.880Z,822.23
2022-11-02T06:40:46.888Z,822.24
2022-11-02T06:41:46.899Z,822.26
2022-11-02T06:43:03.393Z,822.30
2022-11-02T06:43:46.917Z,822.25
2022-11-02T06:44:46.928Z,822.28
2022-11-02T06:45:46.979Z,822.28
2022-11-02T06:46:46.947Z,822.27
2022-11-02T06:47:46.959Z,822.28
2022-11-02T06:48:46.967Z,822.30
2022-11-02T06:49:46.979Z,822.31
2022-11-02T06:50:46.985Z,822.32
2022-11-02T06:51:47.014Z,822.31
2022-11-02T06:52:47.006Z,822.38
2022-11-02T06:53:47.017Z,822.39
2022-11-02T06:54:47.030Z,822.37
2022-11-02T06:55:47.037Z,822.40
2022-11-02T06:56:47.047Z,822.41
2022-11-02T06:57:47.056Z,822.43
2022-11-02T06:58:47.066Z,822.42
2022-11-02T06:59:52.847Z,822.40
2022-11-02T07:00:47.131Z,822.40
2022-11-02T07:01:47.278Z,822.45
2022-11-02T07:02:47.122Z,822.42
2022-11-02T07:03:47.118Z,822.43
2022-11-02T07:04:47.129Z,822.47
2022-11-02T07:05:47.139Z,822.48
2022-11-02T07:06:47.147Z,822.50
2022-11-02T07:07:47.173Z,822.54
2022-11-02T07:08:47.166Z,822.57
2022-11-02T07:09:47.174Z,822.57
2022-11-02T07:10:47.189Z,822.59
2022-11-02T07:11:47.192Z,822.62
2022-11-02T07:12:47.203Z,822.64
2022-11-02T07:13:47.215Z,822.62
2022-11-02T07:14:47.225Z,822.69
2022-11-02T07:15:47.246Z,822.70
2022-11-02T07:16:47.256Z,822.70
2022-11-02T07:17:47.265Z,822.68
2022-11-02T07:18:47.268Z,822.70
2022-11-02T07:19:47.281Z,822.72
2022-11-02T07:20:47.281Z,822.75
2022-11-02T07:21:47.906Z,822.73
2022-11-02T07:22:47.317Z,822.78
2022-11-02T07:23:47.334Z,822.74
2022-11-02T07:24:47.327Z,822.78
2022-11-02T07:25:47.339Z,822.77
2022-11-02T07:26:47.344Z,822.74
2022-11-02T07:27:47.355Z,822.71
2022-11-02T07:28:47.361Z,822.70
2022-11-02T07:29:47.380Z,822.71
2022-11-02T07:30:47.380Z,822.73
2022-11-02T07:31:47.392Z,822.76
2022-11-02T07:32:47.401Z,822.75
2022-11-02T07:33:47.415Z,822.76
2022-11-02T07:34:47.423Z,822.79
2022-11-02T07:35:47.429Z,822.79
2022-11-02T07:36:47.448Z,822.79
2022-11-02T07:37:47.459Z,822.79
2022-11-02T07:38:47.466Z,822.81
2022-11-02T07:39:47.499Z,822.82
2022-11-02T07:40:47.528Z,822.81
2022-11-02T07:41:51.731Z,822.83
2022-11-02T07:42:47.501Z,822.81
2022-11-02T07:43:47.516Z,822.83
2022-11-02T07:44:47.531Z,822.85
2022-11-02T07:45:47.531Z,822.84
2022-11-02T07:46:47.545Z,822.88
2022-11-02T07:47:47.554Z,822.83
2022-11-02T07:48:47.563Z,822.84
2022-11-02T07:49:47.576Z,822.83
2022-11-02T07:50:47.686Z,822.80
2022-11-02T07:51:47.595Z,822.81
2022-11-02T07:52:47.601Z,822.83
2022-11-02T07:53:47.610Z,822.80
2022-11-02T07:54:47.636Z,822.85
2022-11-02T07:55:47.671Z,822.81
2022-11-02T07:56:47.643Z,822.83
2022-11-02T07:57:47.655Z,822.81
2022-11-02T07:58:47.663Z,822.81
2022-11-02T07:59:47.673Z,822.80
2022-11-02T08:00:47.680Z,822.80
2022-11-02T08:01:47.891Z,822.82
2022-11-02T08:02:47.742Z,822.86
2022-11-02T08:03:47.721Z,822.82
2022-11-02T08:04:47.722Z,822.83
2022-11-02T08:05:47.741Z,822.85
2022-11-02T08:06:47.745Z,822.87
2022-11-02T08:07:47.752Z,822.85
2022-11-02T08:08:47.764Z,822.87
2022-11-02T08:09:47.776Z,822.89
2022-11-02T08:10:47.791Z,822.85
2022-11-02T08:11:47.813Z,822.85
2022-11-02T08:12:47.807Z,822.84
2022-11-02T08:13:47.813Z,822.83
2022-11-02T08:14:47.825Z,822.84
2022-11-02T08:15:47.838Z,822.85
2022-11-02T08:16:47.851Z,822.87
2022-11-02T08:17:47.856Z,822.84
2022-11-02T08:18:47.874Z,822.86
2022-11-02T08:19:47.891Z,822.85
2022-11-02T08:20:47.897Z,822.86
2022-11-02T08:21:47.898Z,822.85
2022-11-02T08:22:47.911Z,822.86
2022-11-02T08:23:47.917Z,822.85
2022-11-02T08:24:47.928Z,822.84
2022-11-02T08:25:47.939Z,822.83
2022-11-02T08:26:49.648Z,822.82
2022-11-02T08:27:47.990Z,822.81
2022-11-02T08:28:47.970Z,822.81
2022-11-02T08:29:47.978Z,822.80
2022-11-02T08:30:47.990Z,822.80
2022-11-02T08:31:47.999Z,822.79
2022-11-02T08:32:50.516Z,822.80
2022-11-02T08:33:48.020Z,822.75
2022-11-02T08:34:48.068Z,822.77
2022-11-02T08:35:48.040Z,822.76
2022-11-02T08:36:48.051Z,822.76
2022-11-02T08:37:48.059Z,822.76
2022-11-02T08:38:48.073Z,822.77
2022-11-02T08:39:48.081Z,822.77
2022-11-02T08:40:48.104Z,822.77
2022-11-02T08:41:48.102Z,822.77
2022-11-02T08:42:48.117Z,822.78
2022-11-02T08:43:48.142Z,822.77
2022-11-02T08:44:48.134Z,822.75
2022-11-02T08:46:13.947Z,822.83
2022-11-02T08:46:48.212Z,822.82
2022-11-02T08:47:48.167Z,822.78
2022-11-02T08:48:48.176Z,822.80
2022-11-02T08:49:48.189Z,822.82
2022-11-02T08:50:48.196Z,822.83
2022-11-02T08:51:48.203Z,822.84
2022-11-02T08:52:48.217Z,822.83
2022-11-02T08:53:51.620Z,822.81
2022-11-02T08:54:48.244Z,822.81
2022-11-02T08:55:48.244Z,822.78
2022-11-02T08:56:48.257Z,822.81
2022-11-02T08:57:48.269Z,822.80
2022-11-02T08:58:48.281Z,822.82
2022-11-02T08:59:48.334Z,822.80
2022-11-02T09:00:48.299Z,822.80
2022-11-02T09:01:48.461Z,822.75
2022-11-02T09:02:48.374Z,822.79
2022-11-02T09:03:48.329Z,822.75
2022-11-02T09:04:48.355Z,822.74
2022-11-02T09:05:48.348Z,822.76
2022-11-02T09:06:48.363Z,822.72
2022-11-02T09:07:48.369Z,822.72
2022-11-02T09:08:48.382Z,822.75
2022-11-02T09:09:48.394Z,822.78
2022-11-02T09:10:48.402Z,822.79
2022-11-02T09:11:48.412Z,822.76
2022-11-02T09:12:48.428Z,822.79
2022-11-02T09:13:51.586Z,822.79
2022-11-02T09:14:48.445Z,822.82
2022-11-02T09:15:48.474Z,822.78
2022-11-02T09:16:48.465Z,822.84
2022-11-02T09:17:48.473Z,822.79
2022-11-02T09:18:48.487Z,822.82
2022-11-02T09:19:48.495Z,822.86
2022-11-02T09:20:48.506Z,822.83
2022-11-02T09:21:48.516Z,822.81
2022-11-02T09:22:48.527Z,822.83
2022-11-02T09:23:48.538Z,822.84
2022-11-02T09:24:48.550Z,822.82
2022-11-02T09:25:48.560Z,822.84
2022-11-02T09:26:48.583Z,822.84
2022-11-02T09:27:52.932Z,822.87
2022-11-02T09:28:48.592Z,822.88
2022-11-02T09:29:48.605Z,822.89
2022-11-02T09:30:48.627Z,822.94
2022-11-02T09:31:48.651Z,822.88
2022-11-02T09:32:48.637Z,822.90
2022-11-02T09:33:48.647Z,822.94
2022-11-02T09:34:48.657Z,822.89
2022-11-02T09:35:48.667Z,822.84
2022-11-02T09:36:48.677Z,822.89
2022-11-02T09:37:50.151Z,822.92
2022-11-02T09:38:48.700Z,822.89
2022-11-02T09:39:48.706Z,822.86
2022-11-02T09:40:48.729Z,822.88
2022-11-02T09:41:48.730Z,822.88
2022-11-02T09:42:48.742Z,822.91
2022-11-02T09:43:48.752Z,822.91
2022-11-02T09:44:48.763Z,822.91
2022-11-02T09:45:48.773Z,822.88
2022-11-02T09:46:58.358Z,822.92
2022-11-02T09:48:16.815Z,822.86
2022-11-02T09:48:48.807Z,822.85
2022-11-02T09:49:48.814Z,822.86
2022-11-02T09:50:48.830Z,822.85
2022-11-02T09:51:48.845Z,822.83
2022-11-02T09:52:48.856Z,822.82
2022-11-02T09:53:48.863Z,822.84
2022-11-02T09:54:48.874Z,822.82
2022-11-02T09:55:48.879Z,822.82
2022-11-02T09:56:48.894Z,822.84
2022-11-02T09:57:48.906Z,822.82
2022-11-02T09:58:48.916Z,822.77
2022-11-02T09:59:48.926Z,822.74
2022-11-02T10:00:48.938Z,822.81
2022-11-02T10:01:49.004Z,822.76
2022-11-02T10:02:49.060Z,822.73
2022-11-02T10:03:48.989Z,822.73
2022-11-02T10:04:48.991Z,822.74
2022-11-02T10:05:48.990Z,822.74
2022-11-02T10:06:49.007Z,822.70
2022-11-02T10:07:49.015Z,822.69
2022-11-02T10:08:49.024Z,822.71
2022-11-02T10:09:49.044Z,822.71
2022-11-02T10:10:49.063Z,822.70
2022-11-02T10:11:49.061Z,822.70
2022-11-02T10:12:49.069Z,822.70
2022-11-02T10:13:51.285Z,822.68
2022-11-02T10:14:49.091Z,822.68
2022-11-02T10:15:49.115Z,822.65
2022-11-02T10:16:49.115Z,822.65
2022-11-02T10:17:49.142Z,822.66
2022-11-02T10:18:49.153Z,822.62
2022-11-02T10:19:49.163Z,822.64
2022-11-02T10:20:49.157Z,822.60
2022-11-02T10:21:49.168Z,822.60
2022-11-02T10:22:49.188Z,822.61
2022-11-02T10:23:49.192Z,822.63
2022-11-02T10:24:49.205Z,822.58
2022-11-02T10:25:49.215Z,822.56
2022-11-02T10:26:49.226Z,822.53
2022-11-02T10:27:49.322Z,822.54
2022-11-02T10:28:49.266Z,822.58
2022-11-02T10:29:49.258Z,822.58
2022-11-02T10:30:49.271Z,822.59
2022-11-02T10:31:49.279Z,822.55
2022-11-02T10:32:49.295Z,822.55
2022-11-02T10:33:51.765Z,822.51
2022-11-02T10:34:58.741Z,822.52
2022-11-02T10:36:17.616Z,822.51
2022-11-02T10:36:49.341Z,822.48
2022-11-02T10:37:49.349Z,822.50
2022-11-02T10:38:49.363Z,822.47
2022-11-02T10:39:49.372Z,822.45
2022-11-02T10:40:49.385Z,822.42
2022-11-02T10:41:49.396Z,822.43
2022-11-02T10:42:49.409Z,822.41
2022-11-02T10:43:52.098Z,822.39
2022-11-02T10:44:49.434Z,822.42
2022-11-02T10:45:49.460Z,822.38
2022-11-02T10:46:49.456Z,822.37
2022-11-02T10:47:49.465Z,822.37
2022-11-02T10:48:49.482Z,822.39
2022-11-02T10:49:49.491Z,822.38
2022-11-02T10:50:49.503Z,822.34
2022-11-02T10:51:49.535Z,822.37
2022-11-02T10:52:49.529Z,822.32
2022-11-02T10:53:50.139Z,822.33
2022-11-02T10:54:49.555Z,822.32
2022-11-02T10:55:49.568Z,822.31
2022-11-02T10:56:49.575Z,822.29
2022-11-02T10:57:49.587Z,822.26
2022-11-02T10:58:49.602Z,822.23
2022-11-02T10:59:53.440Z,822.28
2022-11-02T11:00:49.689Z,822.24
2022-11-02T11:01:49.686Z,822.26
2022-11-02T11:02:49.647Z,822.21
2022-11-02T11:03:49.660Z,822.18
2022-11-02T11:04:49.674Z,822.17
2022-11-02T11:05:49.688Z,822.17
2022-11-02T11:06:49.701Z,822.09
2022-11-02T11:07:49.726Z,822.07
2022-11-02T11:08:49.769Z,822.01
2022-11-02T11:09:49.739Z,822.00
2022-11-02T11:10:49.749Z,822.02
2022-11-02T11:11:49.759Z,821.99
2022-11-02T11:12:49.770Z,822.00
2022-11-02T11:15:49.904Z,821.91
2022-11-02T11:16:50.212Z,821.97
2022-11-02T11:19:49.859Z,821.89
2022-11-02T11:20:49.873Z,821.85
2022-11-02T11:21:49.885Z,821.84
2022-11-02T11:22:49.908Z,821.80
2022-11-02T11:23:49.929Z,821.84
2022-11-02T11:24:49.924Z,821.80
2022-11-02T11:25:49.934Z,821.80
2022-11-02T11:26:49.948Z,821.79
2022-11-02T11:27:49.959Z,821.79
2022-11-02T11:28:49.976Z,821.79
2022-11-02T11:29:49.985Z,821.77
2022-11-02T11:31:05.353Z,821.80
2022-11-02T11:31:50.009Z,821.78
2022-11-02T11:32:50.022Z,821.82
2022-11-02T11:33:50.066Z,821.79
2022-11-02T11:34:50.048Z,821.82
2022-11-02T11:35:50.080Z,821.83
2022-11-02T11:36:50.073Z,821.82
2022-11-02T11:37:50.082Z,821.78
2022-11-02T11:38:50.104Z,821.82
2022-11-02T11:39:53.930Z,821.78
2022-11-02T11:40:50.123Z,821.81
2022-11-02T11:41:50.136Z,821.81
2022-11-02T11:42:50.151Z,821.81
2022-11-02T11:43:50.161Z,821.78
2022-11-02T11:44:50.175Z,821.81
2022-11-02T11:45:50.186Z,821.76
2022-11-02T11:46:50.206Z,821.78
2022-11-02T11:47:50.212Z,821.76
2022-11-02T11:48:50.227Z,821.75
2022-11-02T11:50:50.253Z,821.71
2022-11-02T11:51:50.263Z,821.68
2022-11-02T11:52:50.278Z,821.63
2022-11-02T11:53:50.321Z,821.63
2022-11-02T11:54:50.306Z,821.66
2022-11-02T11:55:50.337Z,821.68
2022-11-02T11:56:50.328Z,821.65
2022-11-02T11:57:50.346Z,821.65
2022-11-02T11:58:50.612Z,821.61
2022-11-02T11:59:50.365Z,821.59
2022-11-02T12:00:50.390Z,821.59
2022-11-02T12:01:50.527Z,821.62
2022-11-02T12:02:50.563Z,821.62
2022-11-02T12:03:50.519Z,821.62
2022-11-02T12:04:50.433Z,821.59
2022-11-02T12:05:50.449Z,821.60
2022-11-02T12:06:50.462Z,821.57
2022-11-02T12:07:55.698Z,821.59
2022-11-02T12:08:50.484Z,821.54
2022-11-02T12:09:50.497Z,821.54
2022-11-02T12:10:50.507Z,821.55
2022-11-02T12:11:50.552Z,821.51
2022-11-02T12:12:50.537Z,821.55
2022-11-02T12:13:50.551Z,821.54
2022-11-02T12:14:50.563Z,821.49
2022-11-02T12:15:50.595Z,821.49
2022-11-02T12:16:50.587Z,821.48
2022-11-02T12:17:50.600Z,821.50
2022-11-02T12:18:50.685Z,821.49
2022-11-02T12:19:50.621Z,821.49
2022-11-02T12:20:50.640Z,821.46
2022-11-02T12:21:50.653Z,821.46
2022-11-02T12:22:50.664Z,821.41
2022-11-02T12:23:50.677Z,821.42
2022-11-02T12:24:50.692Z,821.40
2022-11-02T12:25:50.707Z,821.41
2022-11-02T12:26:50.716Z,821.45
2022-11-02T12:27:50.756Z,821.40
2022-11-02T12:28:50.741Z,821.39
2022-11-02T12:29:50.815Z,821.40
2022-11-02T12:30:50.767Z,821.38
2022-11-02T12:31:50.784Z,821.39
2022-11-02T12:32:50.793Z,821.41
2022-11-02T12:33:50.809Z,821.40
2022-11-02T12:35:02.749Z,821.38